Weather at Delaware County Johnson Field

Public forecast

Using degrees Fahrenheit for public forecast. Weather courtesy of forecast.io.

Current aviation weather report (METAR) for Delaware County Johnson Field

Retrieved 2022/07/01 19:53 UTC (48 minutes ago):

KMIE 011953Z 25011KT 10SM FEW070 33/14 A2995 RMK AO2 LTG DSNT W-N SLP128 T03330139

Closest aviation forecast (TAF) to Delaware County Johnson Field

Forecast is more than 6 hours old.

Closest forecast is Grissom Air Reserve Base, 42.3 nm (78.3 km) NW. Retrieved 2022/07/01 13:00 UTC (8 hours ago):

TAF KGUS 011300Z 0113/0219 25012G18KT 9999 FEW055 SCT120 BKN250 QNH2997INS BECMG 0116/0117 25015G25KT 9999 FEW055 SCT120 BKN250 QNH2997INS BECMG 0119/0120 25015G25KT 9000 -SHRA FEW055 SCT075 BKN110 BKN250 QNH2995INS TEMPO 0120/0124 6000 -TSRA FEW040CB BKN055 OVC085 BECMG 0123/0124 30012KT 9000 -SHRA SCT030 BKN050 OVC075 QNH2996INS BECMG 0202/0203 29006KT 9999 NSW FEW050 BKN065 OVC095 QNH2998INS BECMG 0211/0212 33006KT 9999 FEW050 QNH3004INS TX31/0117Z TN17/0211Z